sensor_id;sensor_type;location;lat;lon;timestamp;pressure;altitude;pressure_sealevel;temperature;humidity
55675;BME280;41562;44.330;23.802;2023-08-20T00:01:56;100376.81;;;25.89;61.53
55675;BME280;41562;44.330;23.802;2023-08-20T00:04:26;100375.31;;;25.92;61.19
55675;BME280;41562;44.330;23.802;2023-08-20T00:06:53;100371.13;;;25.75;61.69
55675;BME280;41562;44.330;23.802;2023-08-20T00:09:21;100373.47;;;25.73;62.55
55675;BME280;41562;44.330;23.802;2023-08-20T00:11:49;100373.53;;;25.80;63.47
55675;BME280;41562;44.330;23.802;2023-08-20T00:14:17;100373.41;;;25.99;62.74
55675;BME280;41562;44.330;23.802;2023-08-20T00:16:45;100371.56;;;26.07;61.74
55675;BME280;41562;44.330;23.802;2023-08-20T00:19:13;100375.22;;;25.88;62.26
55675;BME280;41562;44.330;23.802;2023-08-20T00:21:42;100377.75;;;25.74;62.30
55675;BME280;41562;44.330;23.802;2023-08-20T00:24:11;100368.94;;;25.58;62.71
55675;BME280;41562;44.330;23.802;2023-08-20T00:26:39;100376.41;;;25.61;62.20
55675;BME280;41562;44.330;23.802;2023-08-20T00:29:06;100386.00;;;25.51;62.96
55675;BME280;41562;44.330;23.802;2023-08-20T00:31:34;100383.28;;;25.51;63.55
55675;BME280;41562;44.330;23.802;2023-08-20T00:34:02;100378.84;;;25.43;63.96
55675;BME280;41562;44.330;23.802;2023-08-20T00:36:34;100382.91;;;25.53;63.52
55675;BME280;41562;44.330;23.802;2023-08-20T00:39:01;100378.16;;;25.50;63.61
55675;BME280;41562;44.330;23.802;2023-08-20T00:41:29;100375.78;;;25.48;63.57
55675;BME280;41562;44.330;23.802;2023-08-20T00:43:56;100378.59;;;25.52;63.90
55675;BME280;41562;44.330;23.802;2023-08-20T00:46:24;100376.16;;;25.47;64.13
55675;BME280;41562;44.330;23.802;2023-08-20T00:48:52;100372.06;;;25.34;64.67
55675;BME280;41562;44.330;23.802;2023-08-20T00:51:19;100369.03;;;25.42;64.40
55675;BME280;41562;44.330;23.802;2023-08-20T00:53:46;100365.53;;;25.42;64.52
55675;BME280;41562;44.330;23.802;2023-08-20T00:56:15;100364.50;;;25.27;65.08
55675;BME280;41562;44.330;23.802;2023-08-20T00:58:43;100365.31;;;25.28;65.09
55675;BME280;41562;44.330;23.802;2023-08-20T01:01:11;100367.38;;;25.34;65.03
55675;BME280;41562;44.330;23.802;2023-08-20T01:03:39;100364.56;;;25.31;65.35
55675;BME280;41562;44.330;23.802;2023-08-20T01:08:57;100359.72;;;25.20;66.04
55675;BME280;41562;44.330;23.802;2023-08-20T01:11:30;100362.44;;;25.20;66.06
55675;BME280;41562;44.330;23.802;2023-08-20T01:13:59;100364.16;;;25.29;65.32
55675;BME280;41562;44.330;23.802;2023-08-20T01:16:27;100366.78;;;25.21;65.44
55675;BME280;41562;44.330;23.802;2023-08-20T01:18:54;100372.16;;;25.18;65.50
55675;BME280;41562;44.330;23.802;2023-08-20T01:21:44;100369.38;;;25.14;65.64
55675;BME280;41562;44.330;23.802;2023-08-20T01:27:10;100367.91;;;25.20;65.90
55675;BME280;41562;44.330;23.802;2023-08-20T01:29:41;100369.06;;;25.19;66.43
55675;BME280;41562;44.330;23.802;2023-08-20T01:32:10;100361.66;;;24.97;67.22
55675;BME280;41562;44.330;23.802;2023-08-20T01:34:39;100355.59;;;24.88;67.80
55675;BME280;41562;44.330;23.802;2023-08-20T01:37:06;100358.66;;;24.83;67.93
55675;BME280;41562;44.330;23.802;2023-08-20T01:39:34;100368.00;;;24.82;67.78
55675;BME280;41562;44.330;23.802;2023-08-20T01:42:02;100368.72;;;24.79;67.57
55675;BME280;41562;44.330;23.802;2023-08-20T01:44:29;100362.88;;;25.00;67.01
55675;BME280;41562;44.330;23.802;2023-08-20T01:46:57;100356.88;;;24.91;67.30
55675;BME280;41562;44.330;23.802;2023-08-20T01:49:24;100361.53;;;24.90;67.21
55675;BME280;41562;44.330;23.802;2023-08-20T01:51:52;100358.28;;;24.84;67.80
55675;BME280;41562;44.330;23.802;2023-08-20T01:54:19;100357.06;;;24.82;68.78
55675;BME280;41562;44.330;23.802;2023-08-20T01:56:47;100362.03;;;24.76;68.42
55675;BME280;41562;44.330;23.802;2023-08-20T01:59:15;100366.72;;;24.76;68.60
55675;BME280;41562;44.330;23.802;2023-08-20T02:01:42;100355.00;;;24.75;68.52
55675;BME280;41562;44.330;23.802;2023-08-20T02:04:10;100361.84;;;24.66;68.90
55675;BME280;41562;44.330;23.802;2023-08-20T02:06:37;100367.59;;;24.61;69.20
55675;BME280;41562;44.330;23.802;2023-08-20T02:09:05;100365.47;;;24.51;69.94
55675;BME280;41562;44.330;23.802;2023-08-20T02:11:32;100362.00;;;24.54;69.97
55675;BME280;41562;44.330;23.802;2023-08-20T02:14:00;100361.94;;;24.50;70.02
55675;BME280;41562;44.330;23.802;2023-08-20T02:16:28;100356.28;;;24.39;70.60
55675;BME280;41562;44.330;23.802;2023-08-20T02:18:55;100356.53;;;24.34;71.13
55675;BME280;41562;44.330;23.802;2023-08-20T02:21:23;100366.63;;;24.30;71.29
55675;BME280;41562;44.330;23.802;2023-08-20T02:23:51;100367.63;;;24.22;72.05
55675;BME280;41562;44.330;23.802;2023-08-20T02:26:18;100362.69;;;24.28;71.53
55675;BME280;41562;44.330;23.802;2023-08-20T02:28:46;100367.63;;;24.22;71.79
55675;BME280;41562;44.330;23.802;2023-08-20T02:31:13;100369.09;;;24.00;72.95
55675;BME280;41562;44.330;23.802;2023-08-20T02:33:41;100367.69;;;23.91;73.43
55675;BME280;41562;44.330;23.802;2023-08-20T02:36:09;100369.28;;;23.92;74.09
55675;BME280;41562;44.330;23.802;2023-08-20T02:38:36;100369.00;;;23.97;74.24
55675;BME280;41562;44.330;23.802;2023-08-20T02:41:04;100372.03;;;23.92;74.71
55675;BME280;41562;44.330;23.802;2023-08-20T02:43:31;100369.78;;;23.97;74.83
55675;BME280;41562;44.330;23.802;2023-08-20T02:45:59;100371.16;;;23.88;75.88
55675;BME280;41562;44.330;23.802;2023-08-20T02:48:26;100367.75;;;23.75;76.38
55675;BME280;41562;44.330;23.802;2023-08-20T02:50:54;100372.44;;;23.75;76.78
55675;BME280;41562;44.330;23.802;2023-08-20T02:53:22;100366.69;;;23.80;76.62
55675;BME280;41562;44.330;23.802;2023-08-20T02:55:49;100371.69;;;23.78;76.52
55675;BME280;41562;44.330;23.802;2023-08-20T02:58:17;100373.84;;;23.69;76.48
55675;BME280;41562;44.330;23.802;2023-08-20T03:00:44;100374.53;;;23.65;76.93
55675;BME280;41562;44.330;23.802;2023-08-20T03:03:12;100375.44;;;23.54;77.53
55675;BME280;41562;44.330;23.802;2023-08-20T03:05:40;100378.44;;;23.64;77.52
55675;BME280;41562;44.330;23.802;2023-08-20T03:08:07;100386.25;;;23.66;77.27
55675;BME280;41562;44.330;23.802;2023-08-20T03:10:35;100373.69;;;23.61;77.56
55675;BME280;41562;44.330;23.802;2023-08-20T03:13:03;100375.28;;;23.62;77.67
55675;BME280;41562;44.330;23.802;2023-08-20T03:15:31;100368.06;;;23.54;78.00
55675;BME280;41562;44.330;23.802;2023-08-20T03:17:58;100375.19;;;23.94;76.71
55675;BME280;41562;44.330;23.802;2023-08-20T03:20:26;100376.38;;;24.12;75.84
55675;BME280;41562;44.330;23.802;2023-08-20T03:22:53;100383.88;;;24.34;74.92
55675;BME280;41562;44.330;23.802;2023-08-20T03:25:21;100377.09;;;24.67;73.81
55675;BME280;41562;44.330;23.802;2023-08-20T03:27:51;100383.22;;;24.60;73.63
55675;BME280;41562;44.330;23.802;2023-08-20T03:30:18;100378.59;;;24.83;72.74
55675;BME280;41562;44.330;23.802;2023-08-20T03:32:46;100384.22;;;24.91;72.74
55675;BME280;41562;44.330;23.802;2023-08-20T03:35:14;100381.19;;;24.96;72.23
55675;BME280;41562;44.330;23.802;2023-08-20T03:37:41;100386.78;;;24.83;72.91
55675;BME280;41562;44.330;23.802;2023-08-20T03:40:09;100388.91;;;24.71;73.70
55675;BME280;41562;44.330;23.802;2023-08-20T03:42:37;100379.41;;;24.65;74.00
55675;BME280;41562;44.330;23.802;2023-08-20T03:45:05;100385.53;;;24.39;75.23
55675;BME280;41562;44.330;23.802;2023-08-20T03:47:33;100383.09;;;24.53;74.70
55675;BME280;41562;44.330;23.802;2023-08-20T03:50:01;100385.06;;;24.75;73.76
55675;BME280;41562;44.330;23.802;2023-08-20T03:52:28;100374.22;;;24.60;74.68
55675;BME280;41562;44.330;23.802;2023-08-20T03:54:58;100373.09;;;24.41;75.73
55675;BME280;41562;44.330;23.802;2023-08-20T03:57:26;100377.84;;;24.44;75.67
55675;BME280;41562;44.330;23.802;2023-08-20T03:59:54;100385.53;;;24.58;75.43
55675;BME280;41562;44.330;23.802;2023-08-20T04:02:23;100387.13;;;24.40;76.82
55675;BME280;41562;44.330;23.802;2023-08-20T04:04:51;100390.72;;;24.63;75.48
55675;BME280;41562;44.330;23.802;2023-08-20T04:07:18;100400.06;;;24.62;75.82
55675;BME280;41562;44.330;23.802;2023-08-20T04:09:46;100386.59;;;24.54;76.64
55675;BME280;41562;44.330;23.802;2023-08-20T04:12:13;100386.16;;;24.90;76.50
55675;BME280;41562;44.330;23.802;2023-08-20T04:14:40;100393.22;;;24.72;76.37
55675;BME280;41562;44.330;23.802;2023-08-20T04:17:08;100389.91;;;24.63;79.08
55675;BME280;41562;44.330;23.802;2023-08-20T04:19:35;100396.41;;;24.35;79.59
55675;BME280;41562;44.330;23.802;2023-08-20T04:22:03;100401.84;;;24.35;79.67
55675;BME280;41562;44.330;23.802;2023-08-20T04:24:31;100390.66;;;24.40;79.05
55675;BME280;41562;44.330;23.802;2023-08-20T04:26:59;100399.63;;;24.41;79.52
55675;BME280;41562;44.330;23.802;2023-08-20T04:29:26;100396.38;;;24.93;76.60
55675;BME280;41562;44.330;23.802;2023-08-20T04:31:54;100395.72;;;25.22;74.53
55675;BME280;41562;44.330;23.802;2023-08-20T04:34:21;100395.16;;;24.91;75.82
55675;BME280;41562;44.330;23.802;2023-08-20T04:36:49;100390.84;;;25.12;74.35
55675;BME280;41562;44.330;23.802;2023-08-20T04:39:18;100397.88;;;25.36;73.39
55675;BME280;41562;44.330;23.802;2023-08-20T04:41:46;100398.75;;;25.17;74.25
55675;BME280;41562;44.330;23.802;2023-08-20T04:44:13;100398.09;;;25.01;74.88
55675;BME280;41562;44.330;23.802;2023-08-20T04:46:42;100396.38;;;24.93;75.54
55675;BME280;41562;44.330;23.802;2023-08-20T04:49:10;100401.09;;;25.15;74.27
55675;BME280;41562;44.330;23.802;2023-08-20T04:51:38;100402.03;;;25.27;73.93
55675;BME280;41562;44.330;23.802;2023-08-20T04:54:05;100408.00;;;25.09;75.50
55675;BME280;41562;44.330;23.802;2023-08-20T04:56:43;100394.16;;;25.21;74.97
55675;BME280;41562;44.330;23.802;2023-08-20T04:59:17;100407.00;;;24.98;76.13
55675;BME280;41562;44.330;23.802;2023-08-20T05:01:51;100402.72;;;24.78;77.71
55675;BME280;41562;44.330;23.802;2023-08-20T05:04:25;100399.84;;;24.90;77.19
55675;BME280;41562;44.330;23.802;2023-08-20T05:07:02;100403.19;;;25.03;77.01
55675;BME280;41562;44.330;23.802;2023-08-20T05:09:30;100399.22;;;25.23;76.59
55675;BME280;41562;44.330;23.802;2023-08-20T05:11:58;100405.25;;;25.32;76.12
55675;BME280;41562;44.330;23.802;2023-08-20T05:14:33;100403.69;;;25.31;76.76
55675;BME280;41562;44.330;23.802;2023-08-20T05:17:06;100410.06;;;25.39;76.05
55675;BME280;41562;44.330;23.802;2023-08-20T05:19:37;100415.66;;;25.46;76.14
55675;BME280;41562;44.330;23.802;2023-08-20T05:22:08;100410.31;;;25.53;77.53
55675;BME280;41562;44.330;23.802;2023-08-20T05:24:37;100413.53;;;25.36;77.26
55675;BME280;41562;44.330;23.802;2023-08-20T05:27:15;100418.56;;;25.11;77.12
55675;BME280;41562;44.330;23.802;2023-08-20T05:29:44;100420.16;;;25.12;77.99
55675;BME280;41562;44.330;23.802;2023-08-20T05:32:18;100415.00;;;25.30;77.14
55675;BME280;41562;44.330;23.802;2023-08-20T05:34:55;100417.19;;;25.43;76.22
55675;BME280;41562;44.330;23.802;2023-08-20T05:37:29;100425.81;;;25.45;76.51
55675;BME280;41562;44.330;23.802;2023-08-20T05:40:01;100422.06;;;25.53;75.94
55675;BME280;41562;44.330;23.802;2023-08-20T05:42:35;100428.88;;;25.40;77.16
55675;BME280;41562;44.330;23.802;2023-08-20T05:45:09;100430.06;;;25.43;77.81
55675;BME280;41562;44.330;23.802;2023-08-20T05:47:46;100424.34;;;25.51;76.59
55675;BME280;41562;44.330;23.802;2023-08-20T05:50:13;100434.34;;;25.63;77.38
55675;BME280;41562;44.330;23.802;2023-08-20T05:52:44;100433.50;;;25.59;77.56
55675;BME280;41562;44.330;23.802;2023-08-20T05:55:11;100431.94;;;25.84;76.17
55675;BME280;41562;44.330;23.802;2023-08-20T05:57:45;100432.75;;;25.85;76.35
55675;BME280;41562;44.330;23.802;2023-08-20T06:00:16;100431.38;;;25.98;76.51
55675;BME280;41562;44.330;23.802;2023-08-20T06:02:44;100435.94;;;25.90;77.78
55675;BME280;41562;44.330;23.802;2023-08-20T06:05:24;100440.16;;;26.11;75.54
55675;BME280;41562;44.330;23.802;2023-08-20T06:07:55;100441.22;;;26.29;75.42
55675;BME280;41562;44.330;23.802;2023-08-20T06:10:29;100440.31;;;26.51;75.04
55675;BME280;41562;44.330;23.802;2023-08-20T06:13:00;100447.31;;;26.78;73.76
55675;BME280;41562;44.330;23.802;2023-08-20T06:15:34;100444.41;;;26.98;72.66
55675;BME280;41562;44.330;23.802;2023-08-20T06:18:12;100445.16;;;26.95;72.94
55675;BME280;41562;44.330;23.802;2023-08-20T06:20:43;100450.31;;;27.00;73.79
55675;BME280;41562;44.330;23.802;2023-08-20T06:23:14;100452.47;;;27.17;71.44
55675;BME280;41562;44.330;23.802;2023-08-20T06:26:05;100454.63;;;27.41;70.32
55675;BME280;41562;44.330;23.802;2023-08-20T06:28:39;100458.34;;;27.56;69.75
55675;BME280;41562;44.330;23.802;2023-08-20T06:31:14;100450.59;;;27.69;69.50
55675;BME280;41562;44.330;23.802;2023-08-20T06:33:58;100452.13;;;27.70;69.30
55675;BME280;41562;44.330;23.802;2023-08-20T06:36:29;100448.38;;;27.95;68.73
55675;BME280;41562;44.330;23.802;2023-08-20T06:39:03;100453.88;;;27.95;68.18
55675;BME280;41562;44.330;23.802;2023-08-20T06:41:34;100448.47;;;28.06;67.52
55675;BME280;41562;44.330;23.802;2023-08-20T06:44:02;100458.13;;;28.44;66.17
55675;BME280;41562;44.330;23.802;2023-08-20T06:46:31;100464.81;;;28.47;65.73
55675;BME280;41562;44.330;23.802;2023-08-20T06:49:01;100462.94;;;28.72;65.19
55675;BME280;41562;44.330;23.802;2023-08-20T06:51:31;100456.75;;;28.82;61.57
55675;BME280;41562;44.330;23.802;2023-08-20T06:54:06;100461.47;;;28.92;62.80
55675;BME280;41562;44.330;23.802;2023-08-20T06:56:36;100464.59;;;28.91;61.83
55675;BME280;41562;44.330;23.802;2023-08-20T06:59:12;100464.31;;;29.31;62.73
55675;BME280;41562;44.330;23.802;2023-08-20T07:01:47;100460.78;;;29.38;60.31
55675;BME280;41562;44.330;23.802;2023-08-20T07:04:21;100463.97;;;29.65;58.63
55675;BME280;41562;44.330;23.802;2023-08-20T07:06:51;100465.91;;;29.82;58.04
55675;BME280;41562;44.330;23.802;2023-08-20T07:09:24;100459.22;;;29.93;57.63
55675;BME280;41562;44.330;23.802;2023-08-20T07:11:55;100457.63;;;29.89;51.17
55675;BME280;41562;44.330;23.802;2023-08-20T07:14:25;100458.00;;;30.12;50.57
55675;BME280;41562;44.330;23.802;2023-08-20T07:16:56;100461.50;;;30.30;48.41
55675;BME280;41562;44.330;23.802;2023-08-20T07:19:34;100455.19;;;30.33;48.37
55675;BME280;41562;44.330;23.802;2023-08-20T07:22:08;100456.78;;;30.24;48.08
55675;BME280;41562;44.330;23.802;2023-08-20T07:24:39;100460.66;;;30.48;47.97
55675;BME280;41562;44.330;23.802;2023-08-20T07:27:10;100454.31;;;30.58;48.11
55675;BME280;41562;44.330;23.802;2023-08-20T07:29:45;100457.38;;;30.74;47.02
55675;BME280;41562;44.330;23.802;2023-08-20T07:32:12;100458.97;;;30.79;47.40
55675;BME280;41562;44.330;23.802;2023-08-20T07:34:44;100457.31;;;30.92;47.40
55675;BME280;41562;44.330;23.802;2023-08-20T07:37:15;100466.28;;;31.13;46.94
55675;BME280;41562;44.330;23.802;2023-08-20T07:39:43;100457.22;;;31.09;47.08
55675;BME280;41562;44.330;23.802;2023-08-20T07:42:18;100455.56;;;31.23;46.91
55675;BME280;41562;44.330;23.802;2023-08-20T07:44:51;100453.94;;;31.25;46.12
55675;BME280;41562;44.330;23.802;2023-08-20T07:47:22;100454.28;;;31.34;46.33
55675;BME280;41562;44.330;23.802;2023-08-20T07:49:50;100448.81;;;31.27;45.43
55675;BME280;41562;44.330;23.802;2023-08-20T07:52:23;100445.75;;;31.14;47.00
55675;BME280;41562;44.330;23.802;2023-08-20T07:54:54;100445.41;;;31.02;46.89
55675;BME280;41562;44.330;23.802;2023-08-20T07:57:27;100446.09;;;31.20;47.40
55675;BME280;41562;44.330;23.802;2023-08-20T08:00:01;100452.00;;;31.22;46.69
55675;BME280;41562;44.330;23.802;2023-08-20T08:02:34;100447.75;;;31.07;47.61
55675;BME280;41562;44.330;23.802;2023-08-20T08:05:07;100441.44;;;31.06;46.85
55675;BME280;41562;44.330;23.802;2023-08-20T08:07:37;100445.72;;;31.18;45.83
55675;BME280;41562;44.330;23.802;2023-08-20T08:10:11;100436.88;;;31.37;46.01
55675;BME280;41562;44.330;23.802;2023-08-20T08:12:43;100442.03;;;31.35;45.20
55675;BME280;41562;44.330;23.802;2023-08-20T08:15:16;100434.94;;;31.34;44.81
55675;BME280;41562;44.330;23.802;2023-08-20T08:17:47;100438.31;;;31.60;45.39
55675;BME280;41562;44.330;23.802;2023-08-20T08:20:21;100436.47;;;31.42;46.31
55675;BME280;41562;44.330;23.802;2023-08-20T08:22:51;100438.28;;;31.56;46.54
55675;BME280;41562;44.330;23.802;2023-08-20T08:25:19;100433.84;;;31.73;45.49
55675;BME280;41562;44.330;23.802;2023-08-20T08:27:50;100438.28;;;32.01;45.16
55675;BME280;41562;44.330;23.802;2023-08-20T08:30:30;100430.50;;;32.29;45.04
55675;BME280;41562;44.330;23.802;2023-08-20T08:33:05;100431.44;;;32.16;43.72
55675;BME280;41562;44.330;23.802;2023-08-20T08:35:36;100428.59;;;32.23;44.37
55675;BME280;41562;44.330;23.802;2023-08-20T08:38:07;100429.78;;;32.22;43.84
55675;BME280;41562;44.330;23.802;2023-08-20T08:40:41;100426.69;;;32.13;43.47
55675;BME280;41562;44.330;23.802;2023-08-20T08:43:13;100428.38;;;32.41;43.61
55675;BME280;41562;44.330;23.802;2023-08-20T08:45:43;100426.72;;;32.47;41.96
55675;BME280;41562;44.330;23.802;2023-08-20T08:48:13;100422.56;;;32.62;40.60
55675;BME280;41562;44.330;23.802;2023-08-20T08:50:41;100421.09;;;32.54;40.77
55675;BME280;41562;44.330;23.802;2023-08-20T08:53:14;100424.97;;;32.60;40.11
55675;BME280;41562;44.330;23.802;2023-08-20T08:55:45;100420.38;;;32.46;41.50
55675;BME280;41562;44.330;23.802;2023-08-20T08:58:12;100424.41;;;32.42;41.38
55675;BME280;41562;44.330;23.802;2023-08-20T09:00:46;100427.56;;;32.44;42.35
55675;BME280;41562;44.330;23.802;2023-08-20T09:03:17;100419.81;;;32.28;42.88
55675;BME280;41562;44.330;23.802;2023-08-20T09:05:56;100418.38;;;32.16;43.45
55675;BME280;41562;44.330;23.802;2023-08-20T09:08:29;100420.06;;;32.41;41.84
55675;BME280;41562;44.330;23.802;2023-08-20T09:11:03;100424.97;;;32.60;41.36
55675;BME280;41562;44.330;23.802;2023-08-20T09:13:41;100417.53;;;32.84;42.26
55675;BME280;41562;44.330;23.802;2023-08-20T09:16:11;100414.97;;;32.96;39.96
55675;BME280;41562;44.330;23.802;2023-08-20T09:18:43;100425.22;;;32.99;41.30
55675;BME280;41562;44.330;23.802;2023-08-20T09:21:15;100422.69;;;33.08;41.45
55675;BME280;41562;44.330;23.802;2023-08-20T09:23:46;100422.69;;;33.08;40.56
55675;BME280;41562;44.330;23.802;2023-08-20T09:26:14;100420.94;;;33.22;38.84
55675;BME280;41562;44.330;23.802;2023-08-20T09:28:44;100413.47;;;33.19;39.22
55675;BME280;41562;44.330;23.802;2023-08-20T09:31:17;100422.06;;;32.97;39.72
55675;BME280;41562;44.330;23.802;2023-08-20T09:33:52;100414.72;;;32.87;40.13
55675;BME280;41562;44.330;23.802;2023-08-20T09:36:33;100412.88;;;33.04;40.40
55675;BME280;41562;44.330;23.802;2023-08-20T09:39:02;100414.66;;;32.91;40.30
55675;BME280;41562;44.330;23.802;2023-08-20T09:41:30;100415.44;;;32.91;40.36
55675;BME280;41562;44.330;23.802;2023-08-20T09:44:02;100418.69;;;32.86;40.27
55675;BME280;41562;44.330;23.802;2023-08-20T09:46:32;100417.22;;;33.05;38.67
55675;BME280;41562;44.330;23.802;2023-08-20T09:49:09;100416.53;;;32.97;37.74
55675;BME280;41562;44.330;23.802;2023-08-20T09:51:43;100417.13;;;32.85;37.28
55675;BME280;41562;44.330;23.802;2023-08-20T09:54:49;100415.34;;;32.98;38.18
55675;BME280;41562;44.330;23.802;2023-08-20T09:57:33;100414.75;;;32.84;37.05
55675;BME280;41562;44.330;23.802;2023-08-20T10:00:03;100414.63;;;32.94;38.16
55675;BME280;41562;44.330;23.802;2023-08-20T10:02:32;100410.91;;;33.01;37.37
55675;BME280;41562;44.330;23.802;2023-08-20T10:05:04;100413.59;;;33.08;37.24
55675;BME280;41562;44.330;23.802;2023-08-20T10:07:39;100407.63;;;33.09;37.97
55675;BME280;41562;44.330;23.802;2023-08-20T10:10:08;100397.63;;;33.16;36.81
55675;BME280;41562;44.330;23.802;2023-08-20T10:12:43;100399.31;;;33.09;37.71
55675;BME280;41562;44.330;23.802;2023-08-20T10:15:17;100396.34;;;33.24;38.01
55675;BME280;41562;44.330;23.802;2023-08-20T10:17:45;100399.84;;;33.28;38.54
55675;BME280;41562;44.330;23.802;2023-08-20T10:20:17;100397.84;;;33.28;37.05
55675;BME280;41562;44.330;23.802;2023-08-20T10:22:48;100401.47;;;33.25;36.09
55675;BME280;41562;44.330;23.802;2023-08-20T10:25:24;100395.72;;;33.12;36.37
55675;BME280;41562;44.330;23.802;2023-08-20T10:27:54;100390.09;;;33.20;36.52
55675;BME280;41562;44.330;23.802;2023-08-20T10:30:26;100390.72;;;33.27;36.49
55675;BME280;41562;44.330;23.802;2023-08-20T10:32:57;100390.69;;;33.31;35.58
55675;BME280;41562;44.330;23.802;2023-08-20T10:38:12;100383.47;;;33.37;36.16
55675;BME280;41562;44.330;23.802;2023-08-20T10:41:00;100377.16;;;33.33;36.73
55675;BME280;41562;44.330;23.802;2023-08-20T10:43:46;100387.66;;;33.22;35.66
55675;BME280;41562;44.330;23.802;2023-08-20T10:46:19;100383.84;;;33.12;35.16
55675;BME280;41562;44.330;23.802;2023-08-20T10:48:57;100384.00;;;33.01;34.46
55675;BME280;41562;44.330;23.802;2023-08-20T10:51:27;100380.03;;;33.02;34.64
55675;BME280;41562;44.330;23.802;2023-08-20T10:56:41;100362.91;;;33.07;35.29
55675;BME280;41562;44.330;23.802;2023-08-20T10:59:22;100367.50;;;33.18;34.91
55675;BME280;41562;44.330;23.802;2023-08-20T11:01:55;100368.13;;;33.05;35.12
55675;BME280;41562;44.330;23.802;2023-08-20T11:04:33;100366.44;;;33.11;35.18
55675;BME280;41562;44.330;23.802;2023-08-20T11:07:06;100356.84;;;33.16;35.08
55675;BME280;41562;44.330;23.802;2023-08-20T11:09:44;100364.66;;;33.25;34.30
55675;BME280;41562;44.330;23.802;2023-08-20T11:12:19;100362.56;;;33.05;35.07
55675;BME280;41562;44.330;23.802;2023-08-20T11:14:47;100356.72;;;33.00;35.27
55675;BME280;41562;44.330;23.802;2023-08-20T11:17:21;100354.78;;;32.97;36.10
55675;BME280;41562;44.330;23.802;2023-08-20T11:19:49;100351.53;;;33.02;36.85
55675;BME280;41562;44.330;23.802;2023-08-20T11:22:33;100347.25;;;33.24;35.29
55675;BME280;41562;44.330;23.802;2023-08-20T11:25:04;100340.94;;;33.20;35.18
55675;BME280;41562;44.330;23.802;2023-08-20T11:27:44;100347.75;;;33.16;34.91
55675;BME280;41562;44.330;23.802;2023-08-20T11:30:20;100353.09;;;33.03;35.13
55675;BME280;41562;44.330;23.802;2023-08-20T11:32:47;100341.97;;;33.06;35.25
55675;BME280;41562;44.330;23.802;2023-08-20T11:35:18;100346.84;;;32.99;36.14
55675;BME280;41562;44.330;23.802;2023-08-20T11:37:46;100348.34;;;33.03;35.34
55675;BME280;41562;44.330;23.802;2023-08-20T11:40:20;100339.66;;;33.01;34.45
55675;BME280;41562;44.330;23.802;2023-08-20T11:42:49;100335.28;;;33.04;34.63
55675;BME280;41562;44.330;23.802;2023-08-20T11:45:21;100333.09;;;33.15;34.72
55675;BME280;41562;44.330;23.802;2023-08-20T11:47:56;100328.91;;;33.30;34.79
55675;BME280;41562;44.330;23.802;2023-08-20T11:50:24;100328.50;;;33.32;33.69
55675;BME280;41562;44.330;23.802;2023-08-20T11:53:01;100326.25;;;33.23;33.94
55675;BME280;41562;44.330;23.802;2023-08-20T11:55:30;100319.56;;;33.21;33.44
55675;BME280;41562;44.330;23.802;2023-08-20T11:58:01;100320.88;;;33.12;33.33
55675;BME280;41562;44.330;23.802;2023-08-20T12:00:32;100309.31;;;33.18;33.37
55675;BME280;41562;44.330;23.802;2023-08-20T12:03:02;100303.66;;;33.25;33.63
55675;BME280;41562;44.330;23.802;2023-08-20T12:05:33;100308.00;;;33.26;33.13
55675;BME280;41562;44.330;23.802;2023-08-20T12:08:04;100308.84;;;33.23;32.79
55675;BME280;41562;44.330;23.802;2023-08-20T12:10:35;100302.09;;;33.24;32.91
55675;BME280;41562;44.330;23.802;2023-08-20T12:13:08;100306.28;;;33.08;33.39
55675;BME280;41562;44.330;23.802;2023-08-20T12:15:38;100304.66;;;33.11;33.31
55675;BME280;41562;44.330;23.802;2023-08-20T12:18:09;100304.50;;;33.22;32.88
55675;BME280;41562;44.330;23.802;2023-08-20T12:20:43;100310.03;;;32.98;33.20
55675;BME280;41562;44.330;23.802;2023-08-20T12:23:13;100305.97;;;32.80;33.22
55675;BME280;41562;44.330;23.802;2023-08-20T12:25:49;100305.09;;;32.86;33.73
55675;BME280;41562;44.330;23.802;2023-08-20T12:28:20;100301.47;;;32.89;33.80
55675;BME280;41562;44.330;23.802;2023-08-20T12:30:51;100300.03;;;33.04;33.67
55675;BME280;41562;44.330;23.802;2023-08-20T12:33:21;100294.28;;;33.15;34.71
55675;BME280;41562;44.330;23.802;2023-08-20T12:35:51;100292.63;;;33.21;33.77
55675;BME280;41562;44.330;23.802;2023-08-20T12:38:22;100280.72;;;33.44;33.20
55675;BME280;41562;44.330;23.802;2023-08-20T12:40:50;100298.69;;;33.36;32.43
55675;BME280;41562;44.330;23.802;2023-08-20T12:43:21;100291.84;;;33.21;33.19
55675;BME280;41562;44.330;23.802;2023-08-20T12:45:49;100293.50;;;33.14;36.20
55675;BME280;41562;44.330;23.802;2023-08-20T12:48:19;100290.81;;;32.88;33.73
55675;BME280;41562;44.330;23.802;2023-08-20T12:50:52;100279.47;;;32.79;34.02
55675;BME280;41562;44.330;23.802;2023-08-20T12:53:20;100282.06;;;32.89;33.89
55675;BME280;41562;44.330;23.802;2023-08-20T12:55:54;100278.34;;;32.99;33.80
55675;BME280;41562;44.330;23.802;2023-08-20T12:58:27;100275.13;;;33.01;33.39
55675;BME280;41562;44.330;23.802;2023-08-20T13:00:58;100278.09;;;32.90;33.86
55675;BME280;41562;44.330;23.802;2023-08-20T13:03:35;100265.44;;;32.89;33.95
55675;BME280;41562;44.330;23.802;2023-08-20T13:06:11;100267.59;;;33.01;33.82
55675;BME280;41562;44.330;23.802;2023-08-20T13:08:39;100270.63;;;33.10;33.72
55675;BME280;41562;44.330;23.802;2023-08-20T13:11:13;100265.16;;;33.07;33.41